Terminal Aerodrome Forecast
Issued by NWS Brownsville, TX

Home | Current Version | Previous Version | Text Only | Print | Product List | Glossary On
Versions: 1 2 3 4 5 6 7 8 9 10 11 12 13 14 15 16 17 18 19 20 21 22 23
000
FTUS44 KBRO 210500
TAFMFE
TAF
KMFE 210527Z 2106/2206 03006KT P6SM FEW040
     FM211100 04006KT P6SM BKN030
     FM211700 07012KT P6SM VCSH SCT040 BKN060
     FM220200 07006KT P6SM FEW050 BKN120=

USA.gov is the U.S. government's official web portal to all federal, state and local government web resources and services.